sensor_id;sensor_type;location;lat;lon;timestamp;pressure;altitude;pressure_sealevel;temperature;humidity
62926;BME280;55732;52.248;-0.844;2023-05-10T00:01:39;100173.95;;;12.16;86.29
62926;BME280;55732;52.248;-0.844;2023-05-10T00:04:05;100173.49;;;12.11;86.52
62926;BME280;55732;52.248;-0.844;2023-05-10T00:06:31;100178.48;;;12.07;86.54
62926;BME280;55732;52.248;-0.844;2023-05-10T00:08:57;100181.38;;;12.02;86.60
62926;BME280;55732;52.248;-0.844;2023-05-10T00:11:22;100183.92;;;11.97;86.65
62926;BME280;55732;52.248;-0.844;2023-05-10T00:13:47;100185.39;;;11.92;86.70
62926;BME280;55732;52.248;-0.844;2023-05-10T00:16:13;100183.17;;;11.87;86.56
62926;BME280;55732;52.248;-0.844;2023-05-10T00:18:39;100182.00;;;11.82;86.62
62926;BME280;55732;52.248;-0.844;2023-05-10T00:21:05;100182.23;;;11.77;86.58
62926;BME280;55732;52.248;-0.844;2023-05-10T00:23:30;100181.73;;;11.72;86.67
62926;BME280;55732;52.248;-0.844;2023-05-10T00:25:56;100178.79;;;11.68;86.83
62926;BME280;55732;52.248;-0.844;2023-05-10T00:28:21;100180.60;;;11.65;86.74
62926;BME280;55732;52.248;-0.844;2023-05-10T00:30:47;100179.23;;;11.61;86.58
62926;BME280;55732;52.248;-0.844;2023-05-10T00:33:12;100177.16;;;11.56;86.48
62926;BME280;55732;52.248;-0.844;2023-05-10T00:35:37;100176.70;;;11.51;86.41
62926;BME280;55732;52.248;-0.844;2023-05-10T00:38:03;100177.79;;;11.48;86.44
62926;BME280;55732;52.248;-0.844;2023-05-10T00:40:29;100183.66;;;11.44;86.29
62926;BME280;55732;52.248;-0.844;2023-05-10T00:42:56;100178.77;;;11.40;86.28
62926;BME280;55732;52.248;-0.844;2023-05-10T00:45:22;100181.96;;;11.37;86.04
62926;BME280;55732;52.248;-0.844;2023-05-10T00:47:47;100182.02;;;11.33;85.91
62926;BME280;55732;52.248;-0.844;2023-05-10T00:50:14;100181.02;;;11.28;85.74
62926;BME280;55732;52.248;-0.844;2023-05-10T00:52:39;100182.63;;;11.23;85.67
62926;BME280;55732;52.248;-0.844;2023-05-10T00:55:06;100183.23;;;11.19;85.75
62926;BME280;55732;52.248;-0.844;2023-05-10T00:57:32;100182.55;;;11.15;85.55
62926;BME280;55732;52.248;-0.844;2023-05-10T00:59:58;100185.59;;;11.10;85.35
62926;BME280;55732;52.248;-0.844;2023-05-10T01:02:24;100184.77;;;11.06;85.33
62926;BME280;55732;52.248;-0.844;2023-05-10T01:04:50;100186.55;;;11.02;85.37
62926;BME280;55732;52.248;-0.844;2023-05-10T01:07:15;100191.88;;;10.98;85.36
62926;BME280;55732;52.248;-0.844;2023-05-10T01:09:40;100192.28;;;10.94;85.21
62926;BME280;55732;52.248;-0.844;2023-05-10T01:12:06;100195.83;;;10.90;85.30
62926;BME280;55732;52.248;-0.844;2023-05-10T01:14:33;100195.16;;;10.86;85.38
62926;BME280;55732;52.248;-0.844;2023-05-10T01:17:00;100196.97;;;10.81;85.44
62926;BME280;55732;52.248;-0.844;2023-05-10T01:19:27;100196.63;;;10.78;85.59
62926;BME280;55732;52.248;-0.844;2023-05-10T01:33:27;100206.31;;;10.56;86.02
62926;BME280;55732;52.248;-0.844;2023-05-10T01:36:08;100204.91;;;10.53;86.21
62926;BME280;55732;52.248;-0.844;2023-05-10T01:38:44;100207.06;;;10.50;86.44
62926;BME280;55732;52.248;-0.844;2023-05-10T01:44:35;100212.91;;;10.44;86.43
62926;BME280;55732;52.248;-0.844;2023-05-10T01:47:14;100217.32;;;10.41;86.54
62926;BME280;55732;52.248;-0.844;2023-05-10T01:49:45;100215.75;;;10.39;86.65
62926;BME280;55732;52.248;-0.844;2023-05-10T01:52:15;100218.08;;;10.36;86.76
62926;BME280;55732;52.248;-0.844;2023-05-10T01:54:47;100220.02;;;10.34;86.51
62926;BME280;55732;52.248;-0.844;2023-05-10T01:57:16;100218.80;;;10.32;86.69
62926;BME280;55732;52.248;-0.844;2023-05-10T01:59:45;100218.10;;;10.28;86.57
62926;BME280;55732;52.248;-0.844;2023-05-10T02:02:14;100216.21;;;10.25;86.67
62926;BME280;55732;52.248;-0.844;2023-05-10T02:04:40;100214.11;;;10.21;86.67
62926;BME280;55732;52.248;-0.844;2023-05-10T02:07:08;100213.56;;;10.18;86.51
62926;BME280;55732;52.248;-0.844;2023-05-10T02:09:36;100214.12;;;10.14;86.53
62926;BME280;55732;52.248;-0.844;2023-05-10T02:12:03;100217.30;;;10.10;86.53
62926;BME280;55732;52.248;-0.844;2023-05-10T02:14:32;100215.91;;;10.05;86.63
62926;BME280;55732;52.248;-0.844;2023-05-10T02:16:59;100212.06;;;10.02;86.77
62926;BME280;55732;52.248;-0.844;2023-05-10T02:19:28;100213.49;;;9.99;86.70
62926;BME280;55732;52.248;-0.844;2023-05-10T02:21:55;100218.95;;;9.96;86.76
62926;BME280;55732;52.248;-0.844;2023-05-10T02:24:23;100218.26;;;9.93;86.88
62926;BME280;55732;52.248;-0.844;2023-05-10T02:26:51;100221.77;;;9.92;86.91
62926;BME280;55732;52.248;-0.844;2023-05-10T02:29:20;100221.27;;;9.89;86.65
62926;BME280;55732;52.248;-0.844;2023-05-10T02:31:46;100222.00;;;9.86;86.75
62926;BME280;55732;52.248;-0.844;2023-05-10T02:34:13;100221.47;;;9.85;86.88
62926;BME280;55732;52.248;-0.844;2023-05-10T02:36:39;100219.71;;;9.82;86.78
62926;BME280;55732;52.248;-0.844;2023-05-10T02:39:06;100225.01;;;9.79;86.74
62926;BME280;55732;52.248;-0.844;2023-05-10T02:41:37;100229.77;;;9.77;86.79
62926;BME280;55732;52.248;-0.844;2023-05-10T02:44:08;100233.98;;;9.76;86.99
62926;BME280;55732;52.248;-0.844;2023-05-10T02:46:35;100235.40;;;9.73;86.74
62926;BME280;55732;52.248;-0.844;2023-05-10T02:49:01;100237.52;;;9.71;86.90
62926;BME280;55732;52.248;-0.844;2023-05-10T02:51:31;100235.59;;;9.68;86.83
62926;BME280;55732;52.248;-0.844;2023-05-10T02:53:57;100238.08;;;9.64;86.94
62926;BME280;55732;52.248;-0.844;2023-05-10T02:56:31;100236.84;;;9.62;86.97
62926;BME280;55732;52.248;-0.844;2023-05-10T02:58:58;100240.70;;;9.60;87.06
62926;BME280;55732;52.248;-0.844;2023-05-10T03:01:23;100238.42;;;9.58;86.98
62926;BME280;55732;52.248;-0.844;2023-05-10T03:03:49;100247.77;;;9.55;86.96
62926;BME280;55732;52.248;-0.844;2023-05-10T03:06:14;100244.09;;;9.53;86.89
62926;BME280;55732;52.248;-0.844;2023-05-10T03:08:41;100247.77;;;9.50;86.90
62926;BME280;55732;52.248;-0.844;2023-05-10T03:11:28;100249.70;;;9.47;86.95
62926;BME280;55732;52.248;-0.844;2023-05-10T03:14:38;100242.85;;;9.45;87.01
62926;BME280;55732;52.248;-0.844;2023-05-10T03:17:30;100243.41;;;9.42;87.06
62926;BME280;55732;52.248;-0.844;2023-05-10T03:20:06;100242.17;;;9.39;87.07
62926;BME280;55732;52.248;-0.844;2023-05-10T03:22:40;100241.64;;;9.38;86.95
62926;BME280;55732;52.248;-0.844;2023-05-10T03:25:07;100244.10;;;9.36;86.86
62926;BME280;55732;52.248;-0.844;2023-05-10T03:27:39;100240.42;;;9.34;86.75
62926;BME280;55732;52.248;-0.844;2023-05-10T03:30:08;100243.95;;;9.29;86.67
62926;BME280;55732;52.248;-0.844;2023-05-10T03:32:34;100243.60;;;9.26;86.96
62926;BME280;55732;52.248;-0.844;2023-05-10T03:34:59;100248.87;;;9.24;87.02
62926;BME280;55732;52.248;-0.844;2023-05-10T03:37:25;100249.22;;;9.22;86.98
62926;BME280;55732;52.248;-0.844;2023-05-10T03:39:50;100245.38;;;9.20;86.95
62926;BME280;55732;52.248;-0.844;2023-05-10T03:42:16;100248.36;;;9.18;86.94
62926;BME280;55732;52.248;-0.844;2023-05-10T03:44:43;100254.33;;;9.16;87.01
62926;BME280;55732;52.248;-0.844;2023-05-10T03:47:08;100253.80;;;9.13;87.06
62926;BME280;55732;52.248;-0.844;2023-05-10T03:49:33;100255.20;;;9.11;87.05
62926;BME280;55732;52.248;-0.844;2023-05-10T03:51:59;100261.20;;;9.07;86.85
62926;BME280;55732;52.248;-0.844;2023-05-10T03:54:24;100261.01;;;9.04;86.99
62926;BME280;55732;52.248;-0.844;2023-05-10T03:56:49;100263.46;;;9.01;87.10
62926;BME280;55732;52.248;-0.844;2023-05-10T03:59:15;100262.92;;;8.99;87.28
62926;BME280;55732;52.248;-0.844;2023-05-10T04:01:40;100262.40;;;8.97;87.28
62926;BME280;55732;52.248;-0.844;2023-05-10T04:04:05;100264.70;;;8.97;87.40
62926;BME280;55732;52.248;-0.844;2023-05-10T04:06:31;100267.34;;;8.95;87.59
62926;BME280;55732;52.248;-0.844;2023-05-10T04:08:57;100266.46;;;8.94;87.55
62926;BME280;55732;52.248;-0.844;2023-05-10T04:11:25;100270.67;;;8.93;87.42
62926;BME280;55732;52.248;-0.844;2023-05-10T04:13:50;100271.02;;;8.92;87.52
62926;BME280;55732;52.248;-0.844;2023-05-10T04:16:16;100269.09;;;8.93;87.79
62926;BME280;55732;52.248;-0.844;2023-05-10T04:18:41;100273.65;;;8.92;88.06
62926;BME280;55732;52.248;-0.844;2023-05-10T04:21:13;100270.67;;;8.93;87.87
62926;BME280;55732;52.248;-0.844;2023-05-10T04:23:39;100272.77;;;8.95;87.90
62926;BME280;55732;52.248;-0.844;2023-05-10T04:26:04;100270.31;;;8.95;87.97
62926;BME280;55732;52.248;-0.844;2023-05-10T04:28:30;100276.30;;;8.96;88.00
62926;BME280;55732;52.248;-0.844;2023-05-10T04:31:06;100269.08;;;8.97;88.06
62926;BME280;55732;52.248;-0.844;2023-05-10T04:33:32;100267.51;;;8.99;88.01
62926;BME280;55732;52.248;-0.844;2023-05-10T04:35:58;100265.75;;;9.02;88.06
62926;BME280;55732;52.248;-0.844;2023-05-10T04:38:24;100265.92;;;9.05;88.12
62926;BME280;55732;52.248;-0.844;2023-05-10T04:40:50;100265.58;;;9.08;87.81
62926;BME280;55732;52.248;-0.844;2023-05-10T04:43:15;100264.68;;;9.12;87.93
62926;BME280;55732;52.248;-0.844;2023-05-10T04:45:40;100266.27;;;9.17;87.76
62926;BME280;55732;52.248;-0.844;2023-05-10T04:48:06;100269.60;;;9.23;87.57
62926;BME280;55732;52.248;-0.844;2023-05-10T04:50:31;100269.77;;;9.28;87.54
62926;BME280;55732;52.248;-0.844;2023-05-10T04:52:57;100276.26;;;9.34;87.61
62926;BME280;55732;52.248;-0.844;2023-05-10T04:55:22;100280.30;;;9.44;87.43
62926;BME280;55732;52.248;-0.844;2023-05-10T04:57:48;100281.14;;;9.62;87.18
62926;BME280;55732;52.248;-0.844;2023-05-10T05:00:13;100281.23;;;9.87;86.45
62926;BME280;55732;52.248;-0.844;2023-05-10T05:02:42;100282.24;;;10.01;86.07
62926;BME280;55732;52.248;-0.844;2023-05-10T05:05:08;100279.38;;;10.15;86.05
62926;BME280;55732;52.248;-0.844;2023-05-10T05:07:34;100283.58;;;10.26;85.52
62926;BME280;55732;52.248;-0.844;2023-05-10T05:09:59;100289.34;;;10.37;85.29
62926;BME280;55732;52.248;-0.844;2023-05-10T05:12:24;100290.33;;;10.49;84.88
62926;BME280;55732;52.248;-0.844;2023-05-10T05:14:50;100297.28;;;10.63;84.64
62926;BME280;55732;52.248;-0.844;2023-05-10T05:17:15;100299.56;;;10.63;84.25
62926;BME280;55732;52.248;-0.844;2023-05-10T05:19:41;100300.27;;;10.64;84.36
62926;BME280;55732;52.248;-0.844;2023-05-10T05:22:06;100305.15;;;10.73;84.11
62926;BME280;55732;52.248;-0.844;2023-05-10T05:24:36;100304.33;;;10.90;83.76
62926;BME280;55732;52.248;-0.844;2023-05-10T05:27:05;100307.31;;;11.15;83.17
62926;BME280;55732;52.248;-0.844;2023-05-10T05:29:31;100306.98;;;11.32;82.81
62926;BME280;55732;52.248;-0.844;2023-05-10T05:31:56;100310.09;;;11.42;82.32
62926;BME280;55732;52.248;-0.844;2023-05-10T05:34:22;100310.20;;;11.47;82.12
62926;BME280;55732;52.248;-0.844;2023-05-10T05:36:47;100310.55;;;11.47;82.02
62926;BME280;55732;52.248;-0.844;2023-05-10T05:39:13;100315.83;;;11.47;81.85
62926;BME280;55732;52.248;-0.844;2023-05-10T05:41:38;100318.36;;;11.43;81.93
62926;BME280;55732;52.248;-0.844;2023-05-10T05:44:04;100319.10;;;11.37;82.01
62926;BME280;55732;52.248;-0.844;2023-05-10T05:46:29;100325.47;;;11.35;82.23
62926;BME280;55732;52.248;-0.844;2023-05-10T05:48:55;100324.71;;;11.42;82.14
62926;BME280;55732;52.248;-0.844;2023-05-10T05:51:21;100325.02;;;11.46;82.05
62926;BME280;55732;52.248;-0.844;2023-05-10T05:53:46;100324.10;;;11.50;81.93
62926;BME280;55732;52.248;-0.844;2023-05-10T05:56:11;100326.77;;;11.66;81.93
62926;BME280;55732;52.248;-0.844;2023-05-10T05:58:37;100329.29;;;11.98;81.51
62926;BME280;55732;52.248;-0.844;2023-05-10T06:01:02;100335.15;;;13.24;79.69
62926;BME280;55732;52.248;-0.844;2023-05-10T06:03:27;100327.83;;;15.29;76.17
62926;BME280;55732;52.248;-0.844;2023-05-10T06:05:53;100329.42;;;17.34;71.80
62926;BME280;55732;52.248;-0.844;2023-05-10T06:08:18;100324.96;;;18.84;68.11
62926;BME280;55732;52.248;-0.844;2023-05-10T06:10:43;100329.91;;;19.21;66.83
62926;BME280;55732;52.248;-0.844;2023-05-10T06:13:10;100326.09;;;20.10;64.62
62926;BME280;55732;52.248;-0.844;2023-05-10T06:15:35;100329.72;;;20.34;63.43
62926;BME280;55732;52.248;-0.844;2023-05-10T06:18:01;100332.77;;;19.77;63.86
62926;BME280;55732;52.248;-0.844;2023-05-10T06:20:26;100335.54;;;19.09;63.91
62926;BME280;55732;52.248;-0.844;2023-05-10T06:22:52;100335.60;;;18.48;64.14
62926;BME280;55732;52.248;-0.844;2023-05-10T06:25:17;100340.95;;;18.04;64.90
62926;BME280;55732;52.248;-0.844;2023-05-10T06:27:44;100343.67;;;17.72;65.24
62926;BME280;55732;52.248;-0.844;2023-05-10T06:30:09;100347.53;;;17.37;65.62
62926;BME280;55732;52.248;-0.844;2023-05-10T06:32:35;100348.05;;;17.09;66.00
62926;BME280;55732;52.248;-0.844;2023-05-10T06:35:00;100346.69;;;17.02;66.01
62926;BME280;55732;52.248;-0.844;2023-05-10T06:37:26;100352.11;;;17.16;66.03
62926;BME280;55732;52.248;-0.844;2023-05-10T06:39:51;100352.45;;;17.06;66.05
62926;BME280;55732;52.248;-0.844;2023-05-10T06:42:16;100354.36;;;16.90;66.01
62926;BME280;55732;52.248;-0.844;2023-05-10T06:44:42;100352.10;;;16.77;66.10
62926;BME280;55732;52.248;-0.844;2023-05-10T06:47:08;100353.19;;;16.76;66.51
62926;BME280;55732;52.248;-0.844;2023-05-10T06:49:34;100357.50;;;16.81;66.54
62926;BME280;55732;52.248;-0.844;2023-05-10T06:52:00;100358.87;;;16.93;66.33
62926;BME280;55732;52.248;-0.844;2023-05-10T06:54:25;100363.20;;;17.09;66.07
62926;BME280;55732;52.248;-0.844;2023-05-10T06:56:50;100367.33;;;17.08;66.48
62926;BME280;55732;52.248;-0.844;2023-05-10T06:59:16;100363.77;;;16.96;66.04
62926;BME280;55732;52.248;-0.844;2023-05-10T07:01:42;100363.67;;;16.88;66.48
62926;BME280;55732;52.248;-0.844;2023-05-10T07:04:08;100364.95;;;16.87;66.21
62926;BME280;55732;52.248;-0.844;2023-05-10T07:06:33;100361.77;;;16.86;66.41
62926;BME280;55732;52.248;-0.844;2023-05-10T07:08:59;100361.14;;;16.89;66.58
62926;BME280;55732;52.248;-0.844;2023-05-10T07:11:25;100360.03;;;16.90;66.06
62926;BME280;55732;52.248;-0.844;2023-05-10T07:13:50;100362.27;;;17.15;65.60
62926;BME280;55732;52.248;-0.844;2023-05-10T07:16:16;100360.52;;;17.90;64.47
62926;BME280;55732;52.248;-0.844;2023-05-10T07:18:41;100360.19;;;18.00;64.18
62926;BME280;55732;52.248;-0.844;2023-05-10T07:21:07;100361.55;;;17.96;64.43
62926;BME280;55732;52.248;-0.844;2023-05-10T07:23:32;100359.67;;;18.09;64.27
62926;BME280;55732;52.248;-0.844;2023-05-10T07:25:58;100353.30;;;18.57;63.21
62926;BME280;55732;52.248;-0.844;2023-05-10T07:28:23;100357.19;;;19.26;61.91
62926;BME280;55732;52.248;-0.844;2023-05-10T07:30:52;100361.36;;;19.46;60.99
62926;BME280;55732;52.248;-0.844;2023-05-10T07:33:17;100364.75;;;19.64;60.25
62926;BME280;55732;52.248;-0.844;2023-05-10T07:35:43;100365.20;;;19.79;59.90
62926;BME280;55732;52.248;-0.844;2023-05-10T07:38:08;100364.43;;;20.21;59.19
62926;BME280;55732;52.248;-0.844;2023-05-10T07:40:36;100362.44;;;21.03;58.04
62926;BME280;55732;52.248;-0.844;2023-05-10T07:43:01;100364.79;;;22.80;55.18
62926;BME280;55732;52.248;-0.844;2023-05-10T07:45:27;100361.22;;;23.93;52.28
62926;BME280;55732;52.248;-0.844;2023-05-10T07:47:53;100362.06;;;25.39;50.46
62926;BME280;55732;52.248;-0.844;2023-05-10T07:50:18;100361.65;;;26.93;47.63
62926;BME280;55732;52.248;-0.844;2023-05-10T07:52:44;100361.38;;;27.61;45.84
62926;BME280;55732;52.248;-0.844;2023-05-10T07:55:09;100360.73;;;27.96;44.88
62926;BME280;55732;52.248;-0.844;2023-05-10T07:57:35;100361.48;;;29.16;43.17
62926;BME280;55732;52.248;-0.844;2023-05-10T08:00:00;100364.27;;;29.61;41.66
62926;BME280;55732;52.248;-0.844;2023-05-10T08:02:26;100361.88;;;30.25;40.39
62926;BME280;55732;52.248;-0.844;2023-05-10T08:04:51;100359.75;;;31.70;37.76
62926;BME280;55732;52.248;-0.844;2023-05-10T08:07:17;100357.40;;;32.62;36.34
62926;BME280;55732;52.248;-0.844;2023-05-10T08:09:42;100354.86;;;33.04;35.53
62926;BME280;55732;52.248;-0.844;2023-05-10T08:12:08;100357.89;;;33.96;33.86
62926;BME280;55732;52.248;-0.844;2023-05-10T08:14:33;100356.21;;;34.92;32.55
62926;BME280;55732;52.248;-0.844;2023-05-10T08:16:59;100356.98;;;36.13;31.38
62926;BME280;55732;52.248;-0.844;2023-05-10T08:19:24;100355.31;;;37.17;30.11
62926;BME280;55732;52.248;-0.844;2023-05-10T08:21:49;100358.54;;;38.04;28.62
62926;BME280;55732;52.248;-0.844;2023-05-10T08:24:15;100354.77;;;38.65;27.44
62926;BME280;55732;52.248;-0.844;2023-05-10T08:26:40;100352.33;;;39.39;26.48
62926;BME280;55732;52.248;-0.844;2023-05-10T08:29:06;100348.66;;;40.18;25.61
62926;BME280;55732;52.248;-0.844;2023-05-10T08:31:31;100350.52;;;40.75;24.83
62926;BME280;55732;52.248;-0.844;2023-05-10T08:33:56;100351.02;;;41.28;24.15
62926;BME280;55732;52.248;-0.844;2023-05-10T08:36:22;100358.42;;;41.75;23.43
62926;BME280;55732;52.248;-0.844;2023-05-10T08:38:53;100356.58;;;42.09;22.60
62926;BME280;55732;52.248;-0.844;2023-05-10T08:41:23;100355.10;;;42.52;22.28
62926;BME280;55732;52.248;-0.844;2023-05-10T08:43:50;100352.26;;;42.63;21.62
62926;BME280;55732;52.248;-0.844;2023-05-10T08:46:18;100349.17;;;42.64;20.90
62926;BME280;55732;52.248;-0.844;2023-05-10T08:48:48;100348.27;;;42.70;20.87
62926;BME280;55732;52.248;-0.844;2023-05-10T08:51:17;100346.41;;;42.77;20.23
62926;BME280;55732;52.248;-0.844;2023-05-10T08:53:43;100346.43;;;42.83;19.92
62926;BME280;55732;52.248;-0.844;2023-05-10T08:56:09;100346.90;;;42.89;19.43
62926;BME280;55732;52.248;-0.844;2023-05-10T08:58:34;100347.04;;;42.54;19.57
62926;BME280;55732;52.248;-0.844;2023-05-10T09:01:02;100346.38;;;41.50;20.19
62926;BME280;55732;52.248;-0.844;2023-05-10T09:03:28;100347.27;;;41.65;20.38
62926;BME280;55732;52.248;-0.844;2023-05-10T09:05:53;100347.40;;;40.53;21.02
62926;BME280;55732;52.248;-0.844;2023-05-10T09:08:21;100352.52;;;37.78;22.57
62926;BME280;55732;52.248;-0.844;2023-05-10T09:10:50;100347.37;;;35.67;24.06
62926;BME280;55732;52.248;-0.844;2023-05-10T09:13:16;100347.73;;;35.02;24.52
62926;BME280;55732;52.248;-0.844;2023-05-10T09:15:44;100345.49;;;34.27;25.44
62926;BME280;55732;52.248;-0.844;2023-05-10T09:18:09;100346.45;;;32.40;26.44
62926;BME280;55732;52.248;-0.844;2023-05-10T09:20:34;100350.17;;;31.02;27.65
62926;BME280;55732;52.248;-0.844;2023-05-10T09:23:00;100350.38;;;32.50;26.64
62926;BME280;55732;52.248;-0.844;2023-05-10T09:25:26;100350.20;;;34.06;25.67
62926;BME280;55732;52.248;-0.844;2023-05-10T09:27:51;100347.69;;;33.93;25.50
62926;BME280;55732;52.248;-0.844;2023-05-10T09:30:28;100343.33;;;34.45;25.13
62926;BME280;55732;52.248;-0.844;2023-05-10T09:32:54;100344.87;;;32.41;26.72
62926;BME280;55732;52.248;-0.844;2023-05-10T09:35:25;100350.03;;;31.05;28.41
62926;BME280;55732;52.248;-0.844;2023-05-10T09:37:53;100349.02;;;30.49;28.90
62926;BME280;55732;52.248;-0.844;2023-05-10T09:42:58;100347.55;;;32.19;27.57
62926;BME280;55732;52.248;-0.844;2023-05-10T09:45:26;100347.06;;;31.49;28.22
62926;BME280;55732;52.248;-0.844;2023-05-10T09:47:52;100349.16;;;31.39;28.36
62926;BME280;55732;52.248;-0.844;2023-05-10T09:50:19;100350.92;;;30.46;28.90
62926;BME280;55732;52.248;-0.844;2023-05-10T09:55:24;100350.53;;;27.63;31.74
62926;BME280;55732;52.248;-0.844;2023-05-10T09:57:58;100352.17;;;26.39;33.46
62926;BME280;55732;52.248;-0.844;2023-05-10T10:00:24;100355.88;;;25.32;35.32
62926;BME280;55732;52.248;-0.844;2023-05-10T10:02:58;100357.75;;;24.49;36.25
62926;BME280;55732;52.248;-0.844;2023-05-10T10:05:35;100362.45;;;23.72;37.49
62926;BME280;55732;52.248;-0.844;2023-05-10T10:08:03;100362.02;;;23.02;38.46
62926;BME280;55732;52.248;-0.844;2023-05-10T10:10:31;100363.05;;;22.44;39.56
62926;BME280;55732;52.248;-0.844;2023-05-10T10:12:56;100362.92;;;21.91;40.91
62926;BME280;55732;52.248;-0.844;2023-05-10T10:15:23;100360.80;;;22.54;40.57
62926;BME280;55732;52.248;-0.844;2023-05-10T10:17:49;100354.86;;;24.34;39.04
62926;BME280;55732;52.248;-0.844;2023-05-10T10:20:15;100353.86;;;25.87;37.63
62926;BME280;55732;52.248;-0.844;2023-05-10T10:22:41;100349.34;;;25.46;38.13
62926;BME280;55732;52.248;-0.844;2023-05-10T10:25:07;100349.19;;;24.83;38.00
62926;BME280;55732;52.248;-0.844;2023-05-10T10:30:48;100344.69;;;23.75;39.00
62926;BME280;55732;52.248;-0.844;2023-05-10T10:33:30;100350.05;;;23.51;40.12
62926;BME280;55732;52.248;-0.844;2023-05-10T10:36:00;100347.10;;;23.77;40.02
62926;BME280;55732;52.248;-0.844;2023-05-10T10:38:36;100350.52;;;23.73;39.71
62926;BME280;55732;52.248;-0.844;2023-05-10T10:41:09;100351.98;;;23.48;39.90
62926;BME280;55732;52.248;-0.844;2023-05-10T10:43:35;100350.24;;;23.07;40.55
62926;BME280;55732;52.248;-0.844;2023-05-10T10:48:35;100359.88;;;22.01;42.68
62926;BME280;55732;52.248;-0.844;2023-05-10T10:51:01;100359.03;;;21.51;43.70
62926;BME280;55732;52.248;-0.844;2023-05-10T10:53:27;100360.98;;;21.00;44.98
62926;BME280;55732;52.248;-0.844;2023-05-10T10:56:13;100357.37;;;20.51;46.30
62926;BME280;55732;52.248;-0.844;2023-05-10T10:58:41;100362.05;;;20.06;47.20
62926;BME280;55732;52.248;-0.844;2023-05-10T11:01:13;100364.23;;;19.76;47.69
62926;BME280;55732;52.248;-0.844;2023-05-10T11:03:41;100362.72;;;19.57;48.04
62926;BME280;55732;52.248;-0.844;2023-05-10T11:06:07;100360.88;;;19.36;49.55
62926;BME280;55732;52.248;-0.844;2023-05-10T11:08:41;100364.92;;;19.20;50.43
62926;BME280;55732;52.248;-0.844;2023-05-10T11:11:08;100366.64;;;19.09;51.25
62926;BME280;55732;52.248;-0.844;2023-05-10T11:13:34;100364.84;;;19.05;51.90
62926;BME280;55732;52.248;-0.844;2023-05-10T11:16:20;100363.49;;;19.29;51.73
62926;BME280;55732;52.248;-0.844;2023-05-10T11:18:57;100362.33;;;19.62;51.18
62926;BME280;55732;52.248;-0.844;2023-05-10T11:21:23;100358.88;;;19.97;50.46
62926;BME280;55732;52.248;-0.844;2023-05-10T11:23:55;100357.70;;;20.32;50.22
62926;BME280;55732;52.248;-0.844;2023-05-10T11:26:26;100351.21;;;20.61;49.71
62926;BME280;55732;52.248;-0.844;2023-05-10T11:28:55;100349.03;;;20.84;49.43
62926;BME280;55732;52.248;-0.844;2023-05-10T11:31:21;100348.45;;;21.11;49.41
62926;BME280;55732;52.248;-0.844;2023-05-10T11:33:49;100348.61;;;21.34;48.92
62926;BME280;55732;52.248;-0.844;2023-05-10T11:36:17;100345.79;;;21.54;49.17
62926;BME280;55732;52.248;-0.844;2023-05-10T11:38:43;100341.84;;;21.65;49.14
62926;BME280;55732;52.248;-0.844;2023-05-10T11:41:09;100345.73;;;21.38;49.25
62926;BME280;55732;52.248;-0.844;2023-05-10T11:43:36;100345.39;;;20.97;49.92
62926;BME280;55732;52.248;-0.844;2023-05-10T11:46:07;100346.14;;;20.46;50.01
62926;BME280;55732;52.248;-0.844;2023-05-10T11:48:33;100344.55;;;20.13;50.44
62926;BME280;55732;52.248;-0.844;2023-05-10T11:51:00;100341.35;;;20.21;50.50
62926;BME280;55732;52.248;-0.844;2023-05-10T11:53:27;100337.00;;;20.30;50.43
62926;BME280;55732;52.248;-0.844;2023-05-10T11:55:52;100337.92;;;20.22;50.39
62926;BME280;55732;52.248;-0.844;2023-05-10T11:58:18;100338.44;;;20.06;50.36
62926;BME280;55732;52.248;-0.844;2023-05-10T12:00:44;100337.36;;;20.06;50.08
62926;BME280;55732;52.248;-0.844;2023-05-10T12:03:11;100329.71;;;20.38;49.68
62926;BME280;55732;52.248;-0.844;2023-05-10T12:05:36;100323.41;;;20.70;48.96
62926;BME280;55732;52.248;-0.844;2023-05-10T12:08:15;100325.77;;;21.03;48.58
62926;BME280;55732;52.248;-0.844;2023-05-10T12:10:41;100324.52;;;21.36;48.34
62926;BME280;55732;52.248;-0.844;2023-05-10T12:13:14;100321.90;;;21.63;47.42
62926;BME280;55732;52.248;-0.844;2023-05-10T12:15:40;100317.81;;;21.76;46.80
62926;BME280;55732;52.248;-0.844;2023-05-10T12:18:08;100321.33;;;21.71;47.75
62926;BME280;55732;52.248;-0.844;2023-05-10T12:20:34;100322.58;;;21.60;47.86
62926;BME280;55732;52.248;-0.844;2023-05-10T12:22:59;100324.48;;;21.44;47.43
62926;BME280;55732;52.248;-0.844;2023-05-10T12:25:33;100328.48;;;21.25;46.86
62926;BME280;55732;52.248;-0.844;2023-05-10T12:28:00;100327.22;;;21.39;46.98
62926;BME280;55732;52.248;-0.844;2023-05-10T12:30:30;100319.38;;;21.60;46.74
62926;BME280;55732;52.248;-0.844;2023-05-10T12:33:07;100325.23;;;21.71;46.72
62926;BME280;55732;52.248;-0.844;2023-05-10T12:35:38;100318.20;;;21.68;45.97
62926;BME280;55732;52.248;-0.844;2023-05-10T12:38:29;100325.52;;;21.61;46.06
62926;BME280;55732;52.248;-0.844;2023-05-10T12:40:58;100327.30;;;21.66;46.19
62926;BME280;55732;52.248;-0.844;2023-05-10T12:43:24;100320.31;;;21.86;45.61
62926;BME280;55732;52.248;-0.844;2023-05-10T12:45:49;100320.75;;;21.88;44.56
62926;BME280;55732;52.248;-0.844;2023-05-10T12:48:15;100323.67;;;21.77;44.83
62926;BME280;55732;52.248;-0.844;2023-05-10T12:50:40;100321.80;;;21.61;45.82
62926;BME280;55732;52.248;-0.844;2023-05-10T12:53:06;100323.06;;;21.50;46.61
62926;BME280;55732;52.248;-0.844;2023-05-10T12:55:31;100321.04;;;21.45;46.72
62926;BME280;55732;52.248;-0.844;2023-05-10T12:57:57;100317.35;;;21.47;46.28
62926;BME280;55732;52.248;-0.844;2023-05-10T13:00:22;100319.84;;;21.47;46.51
62926;BME280;55732;52.248;-0.844;2023-05-10T13:02:48;100317.63;;;21.69;46.45
62926;BME280;55732;52.248;-0.844;2023-05-10T13:05:13;100305.73;;;22.02;45.43
62926;BME280;55732;52.248;-0.844;2023-05-10T13:07:38;100302.73;;;22.24;44.73
62926;BME280;55732;52.248;-0.844;2023-05-10T13:10:05;100301.89;;;22.40;44.70